This is the latest recevied weather packets stored in our database for station/object GW1549. If no packets are shown the sender has not sent any weather packets the latest 10 day(s).
| Time | Temp. | Humidity | Pressure | Rain* | Wind** | Luminosity | Snow |
|---|---|---|---|---|---|---|---|
| 1777274670 | 10° C | 90% | 1012.1 hPa | 0 mm | - | - | - |
| 1777274309 | 10° C | 90% | 1012.1 hPa | 0 mm | - | - | - |
| 1777273609 | 10.56° C | 89% | 1012.5 hPa | 0 mm | - | - | - |
| 1777271065 | 10.56° C | 88% | 1012.8 hPa | 0 mm | - | - | - |
| 1777270356 | 10.56° C | 89% | 1012.8 hPa | 0 mm | - | - | - |
| 1777269979 | 10.56° C | 88% | 1012.8 hPa | 0 mm | - | - | - |
| 1777269623 | 10.56° C | 89% | 1012.8 hPa | 0 mm | - | - | - |
| 1777267126 | 11.11° C | 89% | 1013.2 hPa | 0 mm | - | - | - |
| 1777266733 | 11.11° C | 89% | 1013.2 hPa | 0 mm | - | - | - |
| 1777263508 | 11.11° C | 90% | 1013.2 hPa | 0 mm | - | - | - |
| 1777254873 | 11.67° C | 91% | 1012.1 hPa | 0 mm | - | - | - |
| 1777254135 | 12.22° C | 89% | 1012.5 hPa | 0 mm | - | - | - |
| 1777253771 | 12.22° C | 89% | 1012.5 hPa | 0 mm | - | - | - |
| 1777247674 | 16.11° C | 73% | 1011.8 hPa | 0 mm | - | - | - |
| 1777245158 | 17.22° C | 69% | 1011.8 hPa | 0 mm | - | - | - |
| 1777244805 | 17.22° C | 69% | 1011.8 hPa | 0 mm | - | - | - |
| 1777241198 | 17.22° C | 69% | 1011.8 hPa | 0 mm | - | - | - |
| 1777240488 | 17.78° C | 69% | 1011.8 hPa | 0 mm | - | - | - |
| 1777238679 | 16.67° C | 70% | 1011.8 hPa | 0 mm | - | - | - |
| 1777235814 | 15.56° C | 74% | 1012.1 hPa | 0 mm | - | - | - |
| 1777234359 | 14.44° C | 76% | 1012.1 hPa | 0 mm | - | - | - |
| 1777234000 | 14.44° C | 77% | 1012.1 hPa | 0 mm | - | - | - |
| 1777231817 | 13.33° C | 77% | 1012.5 hPa | 0 mm | - | - | - |
| 1777229659 | 13.33° C | 80% | 1012.8 hPa | 0 mm | - | - | - |
| 1777227175 | 11.67° C | 83% | 1012.8 hPa | 0 mm | - | - | - |
* Rain since midnight (hover to see other rain measurements)
** Current wind speed in m/s (hover to see current wind gust speed)